Upson, Wisconsin
Current Conditions -  °F | °C
As of 5:15 AM on Tuesday 21 Oct 2014 (Local Time) from KIWD Reporting Station
Overcast Overcast  
Wind Chill: 39°   Ceiling: 1900
Heat Index: 39°   Visibility: 10mi
Dew Point: 37°   Wind: 0mph
Humidity: 93%   Direction: NA
Pressure: 30.16"   Gusts: NA
Location:  46.37°N, 90.41°W
Report Text: KIWD 211015Z AUTO 00000KT 10SM BKN019 OVC023 04/03 A3016 RMK AO1
Loading
Personal Weather Stations






























Interactive Weather Map
Tropical Storm Tracking
New forecast layout! Learn more

10-Day Weather Forecast

Advertisements
Track Severe Weather on mobile